createdAt,value
2022-12-18T00:00:20.324Z,82.14
2022-12-18T00:03:03.541Z,82.55
2022-12-18T00:05:51.499Z,82.28
2022-12-18T00:08:34.892Z,81.84
2022-12-18T00:11:20.651Z,81.43
2022-12-18T00:14:05.126Z,81.27
2022-12-18T00:16:49.578Z,81.60
2022-12-18T00:19:32.636Z,80.46
2022-12-18T00:22:15.748Z,80.47
2022-12-18T00:24:58.821Z,80.70
2022-12-18T00:27:42.063Z,80.43
2022-12-18T00:30:26.629Z,80.63
2022-12-18T00:33:09.770Z,81.52
2022-12-18T00:35:52.869Z,81.38
2022-12-18T00:38:36.478Z,81.23
2022-12-18T00:41:34.553Z,81.50
2022-12-18T00:44:19.956Z,81.04
2022-12-18T00:47:04.530Z,81.28
2022-12-18T00:49:47.772Z,80.61
2022-12-18T00:52:30.990Z,81.10
2022-12-18T00:55:15.216Z,80.72
2022-12-18T00:57:58.399Z,80.41
2022-12-18T01:00:41.574Z,79.99
2022-12-18T01:03:26.564Z,79.88
2022-12-18T01:06:11.285Z,79.54
2022-12-18T01:08:54.439Z,79.72
2022-12-18T01:11:37.553Z,79.79
2022-12-18T01:14:20.683Z,79.93
2022-12-18T01:17:04.757Z,80.08
2022-12-18T01:19:49.939Z,80.62
2022-12-18T01:22:33.071Z,80.62
2022-12-18T01:25:16.693Z,79.78
2022-12-18T01:27:59.874Z,80.77
2022-12-18T01:30:42.998Z,79.51
2022-12-18T01:33:26.133Z,79.13
2022-12-18T01:36:11.189Z,78.54
2022-12-18T01:38:55.399Z,79.78
2022-12-18T01:41:52.921Z,79.58
2022-12-18T01:45:08.290Z,79.76
2022-12-18T01:47:54.841Z,80.50
2022-12-18T01:50:40.025Z,80.16
2022-12-18T01:53:25.950Z,80.28
2022-12-18T01:56:10.690Z,80.50
2022-12-18T01:58:59.424Z,80.45
2022-12-18T02:01:42.755Z,80.91
2022-12-18T02:04:31.305Z,81.01
2022-12-18T02:07:27.123Z,80.39
2022-12-18T02:10:19.151Z,80.25
2022-12-18T02:13:07.695Z,81.21
2022-12-18T02:16:00.695Z,79.96
2022-12-18T02:18:47.588Z,80.27
2022-12-18T02:21:40.847Z,80.09
2022-12-18T02:24:35.480Z,80.92
2022-12-18T02:27:21.366Z,81.07
2022-12-18T02:30:07.352Z,80.54
2022-12-18T02:32:53.595Z,81.26
2022-12-18T02:35:38.779Z,81.24
2022-12-18T02:38:22.375Z,81.60
2022-12-18T02:41:07.451Z,81.20
2022-12-18T02:43:59.481Z,79.96
2022-12-18T02:46:45.613Z,79.69
2022-12-18T02:49:38.317Z,80.48
2022-12-18T02:52:33.927Z,79.65
2022-12-18T02:55:28.622Z,79.62
2022-12-18T02:58:18.142Z,78.50
2022-12-18T03:01:09.686Z,79.04
2022-12-18T03:03:58.666Z,79.46
2022-12-18T03:06:44.611Z,79.60
2022-12-18T03:09:34.194Z,79.73
2022-12-18T03:12:28.551Z,79.53
2022-12-18T03:15:17.817Z,79.52
2022-12-18T03:18:07.288Z,81.08
2022-12-18T03:20:57.049Z,79.50
2022-12-18T03:23:45.713Z,81.13
2022-12-18T03:26:30.146Z,79.86
2022-12-18T03:29:19.143Z,80.19
2022-12-18T03:32:07.211Z,80.56
2022-12-18T03:34:56.093Z,80.01
2022-12-18T03:37:39.487Z,79.57
2022-12-18T03:40:29.121Z,80.27
2022-12-18T03:43:19.453Z,79.96
2022-12-18T03:46:07.631Z,79.55
2022-12-18T03:48:55.663Z,79.79
2022-12-18T03:51:45.661Z,79.46
2022-12-18T03:54:30.709Z,79.53
2022-12-18T03:57:20.596Z,79.73
2022-12-18T04:00:08.685Z,79.68
2022-12-18T04:02:55.095Z,78.96
2022-12-18T04:05:39.727Z,79.58
2022-12-18T04:08:25.817Z,78.81
2022-12-18T04:11:09.193Z,79.67
2022-12-18T04:13:52.319Z,79.57
2022-12-18T04:16:35.637Z,78.82
2022-12-18T04:19:18.891Z,79.26
2022-12-18T04:22:02.068Z,78.65
2022-12-18T04:24:47.169Z,79.89
2022-12-18T04:27:30.394Z,78.86
2022-12-18T04:30:14.084Z,78.84
2022-12-18T04:32:57.128Z,78.94
2022-12-18T04:35:41.396Z,78.62
2022-12-18T04:38:24.533Z,77.98
2022-12-18T04:41:09.411Z,78.05
2022-12-18T04:43:52.460Z,78.42
2022-12-18T04:46:35.710Z,77.92
2022-12-18T04:49:19.019Z,78.25
2022-12-18T04:52:02.121Z,77.52
2022-12-18T04:54:45.208Z,78.04
2022-12-18T04:57:30.091Z,78.07
2022-12-18T05:00:14.643Z,76.90
2022-12-18T05:02:57.815Z,77.11
2022-12-18T05:05:41.094Z,76.37
2022-12-18T05:08:24.162Z,76.11
2022-12-18T05:11:09.779Z,75.99
2022-12-18T05:13:55.050Z,74.95
2022-12-18T05:16:38.854Z,75.04
2022-12-18T05:19:21.938Z,74.35
2022-12-18T05:22:05.046Z,75.32
2022-12-18T05:24:48.150Z,75.60
2022-12-18T05:27:31.649Z,75.23
2022-12-18T05:30:17.361Z,75.21
2022-12-18T05:33:00.554Z,75.32
2022-12-18T05:35:43.707Z,74.46
2022-12-18T05:38:28.799Z,74.96
2022-12-18T05:41:12.345Z,75.18
2022-12-18T05:43:55.615Z,74.72
2022-12-18T05:46:43.196Z,74.63
2022-12-18T05:49:26.412Z,74.15
2022-12-18T05:52:09.983Z,73.91
2022-12-18T05:54:53.408Z,74.90
2022-12-18T05:57:36.500Z,74.31
2022-12-18T06:00:20.059Z,74.33
2022-12-18T06:03:04.849Z,74.60
2022-12-18T06:05:48.163Z,74.23
2022-12-18T06:08:31.234Z,73.13
2022-12-18T06:11:14.259Z,73.77
2022-12-18T06:14:00.152Z,72.72
2022-12-18T06:16:43.854Z,72.91
2022-12-18T06:19:28.345Z,73.57
2022-12-18T06:22:11.675Z,73.37
2022-12-18T06:24:54.780Z,74.03
2022-12-18T06:27:37.834Z,72.58
2022-12-18T06:30:21.052Z,72.62
2022-12-18T06:33:04.129Z,72.74
2022-12-18T06:35:48.699Z,71.81
2022-12-18T06:38:31.930Z,72.11
2022-12-18T06:41:16.824Z,73.00
2022-12-18T06:44:00.319Z,72.76
2022-12-18T06:46:43.517Z,72.39
2022-12-18T06:49:30.400Z,72.30
2022-12-18T06:52:17.923Z,71.43
2022-12-18T06:55:02.177Z,72.11
2022-12-18T06:57:45.271Z,70.59
2022-12-18T07:00:28.316Z,71.12
2022-12-18T07:03:11.877Z,71.51
2022-12-18T07:05:55.649Z,71.24
2022-12-18T07:08:40.096Z,71.00
2022-12-18T07:11:23.344Z,70.77
2022-12-18T07:14:06.820Z,69.03
2022-12-18T07:16:50.004Z,69.33
2022-12-18T07:19:33.326Z,69.81
2022-12-18T07:22:16.672Z,69.21
2022-12-18T07:25:01.223Z,69.53
2022-12-18T07:27:44.483Z,68.90
2022-12-18T07:30:28.289Z,69.96
2022-12-18T07:33:11.340Z,69.60
2022-12-18T07:35:54.457Z,69.48
2022-12-18T07:38:38.120Z,69.24
2022-12-18T07:41:22.815Z,68.85
2022-12-18T07:44:06.470Z,68.88
2022-12-18T07:46:50.006Z,68.97
2022-12-18T07:49:33.334Z,69.16
2022-12-18T07:52:18.429Z,68.98
2022-12-18T07:55:04.583Z,68.02
2022-12-18T07:57:51.271Z,69.19
2022-12-18T08:00:35.339Z,68.19
2022-12-18T08:03:18.576Z,68.38
2022-12-18T08:06:03.246Z,68.23
2022-12-18T08:08:46.437Z,68.76
2022-12-18T08:11:30.752Z,68.75
2022-12-18T08:14:16.881Z,68.52
2022-12-18T08:17:00.374Z,67.90
2022-12-18T08:19:43.545Z,69.33
2022-12-18T08:22:26.658Z,69.10
2022-12-18T08:25:10.816Z,69.38
2022-12-18T08:27:54.884Z,70.54
2022-12-18T08:30:41.877Z,69.92
2022-12-18T08:33:25.556Z,70.30
2022-12-18T08:36:10.288Z,70.40
2022-12-18T08:38:53.842Z,70.69
2022-12-18T08:41:37.252Z,70.25
2022-12-18T08:44:37.453Z,69.82
2022-12-18T08:47:22.111Z,69.92
2022-12-18T08:50:05.650Z,68.84
2022-12-18T08:52:50.100Z,70.11
2022-12-18T08:55:33.207Z,70.26
2022-12-18T08:58:16.365Z,69.62
2022-12-18T09:01:03.177Z,71.02
2022-12-18T09:03:49.162Z,69.04
2022-12-18T09:06:32.487Z,67.53
2022-12-18T09:09:15.607Z,65.12
2022-12-18T09:11:58.701Z,66.30
2022-12-18T09:14:41.766Z,65.82
2022-12-18T09:17:25.060Z,64.93
2022-12-18T09:20:10.843Z,64.44
2022-12-18T09:22:53.901Z,64.39
2022-12-18T09:25:38.299Z,64.38
2022-12-18T09:28:21.729Z,65.21
2022-12-18T09:31:08.796Z,64.92
2022-12-18T09:33:52.671Z,65.13
2022-12-18T09:36:37.234Z,63.71
2022-12-18T09:39:21.828Z,64.06
2022-12-18T09:42:08.113Z,63.36
2022-12-18T09:44:53.222Z,63.38
2022-12-18T09:47:40.391Z,62.37
2022-12-18T09:50:29.700Z,63.25
2022-12-18T09:53:20.729Z,61.98
2022-12-18T09:56:06.424Z,62.36
2022-12-18T09:58:56.991Z,62.21
2022-12-18T10:01:44.344Z,61.24
2022-12-18T10:04:32.862Z,61.34
2022-12-18T10:07:22.423Z,61.23
2022-12-18T10:10:17.142Z,60.20
2022-12-18T10:13:10.700Z,59.58
2022-12-18T10:16:16.451Z,60.81
2022-12-18T10:19:17.740Z,60.47
2022-12-18T10:22:10.886Z,60.12
2022-12-18T10:25:02.676Z,60.58
2022-12-18T10:27:47.460Z,61.05
2022-12-18T10:30:30.581Z,61.04
2022-12-18T10:33:19.296Z,60.65
2022-12-18T10:36:04.004Z,60.39
2022-12-18T10:38:47.789Z,60.08
2022-12-18T10:41:32.022Z,59.78
2022-12-18T10:44:21.355Z,60.02
2022-12-18T10:47:11.668Z,59.76
2022-12-18T10:49:57.247Z,59.94
2022-12-18T10:52:43.622Z,60.91
2022-12-18T10:55:34.984Z,60.51
2022-12-18T10:58:28.128Z,60.04
2022-12-18T11:01:16.702Z,62.45
2022-12-18T11:04:09.768Z,61.52
2022-12-18T11:07:02.086Z,61.67
2022-12-18T11:09:45.221Z,61.52
2022-12-18T11:12:31.092Z,61.46
2022-12-18T11:15:18.940Z,61.92
2022-12-18T11:18:03.762Z,61.34
2022-12-18T11:20:58.328Z,60.26
2022-12-18T11:23:50.672Z,60.44
2022-12-18T11:26:39.384Z,60.79
2022-12-18T11:29:30.638Z,59.76
2022-12-18T11:32:31.785Z,58.88
2022-12-18T11:35:21.890Z,59.12
2022-12-18T11:38:12.499Z,59.18
2022-12-18T11:41:01.327Z,59.06
2022-12-18T11:43:52.358Z,60.41
2022-12-18T11:46:40.270Z,59.22
2022-12-18T11:49:28.996Z,58.39
2022-12-18T11:52:21.154Z,58.78
2022-12-18T11:55:13.485Z,59.62
2022-12-18T11:58:06.253Z,59.57
2022-12-18T12:00:55.192Z,59.58
2022-12-18T12:04:17.764Z,59.56
2022-12-18T12:07:08.810Z,59.12
2022-12-18T12:10:07.703Z,59.43
2022-12-18T12:13:04.777Z,58.99
2022-12-18T12:16:00.332Z,60.35
2022-12-18T12:18:57.567Z,59.02
2022-12-18T12:21:43.155Z,59.90
2022-12-18T12:24:41.078Z,59.84
2022-12-18T12:27:36.871Z,60.24
2022-12-18T12:30:23.702Z,59.74
2022-12-18T12:33:26.673Z,60.66
2022-12-18T12:36:17.273Z,61.20
2022-12-18T12:39:03.454Z,61.01
2022-12-18T12:42:06.291Z,60.99
2022-12-18T12:44:56.194Z,60.99
2022-12-18T12:47:44.592Z,60.43
2022-12-18T12:50:32.282Z,60.45
2022-12-18T12:53:24.671Z,60.45
2022-12-18T12:56:10.841Z,60.94
2022-12-18T12:59:07.586Z,60.99
2022-12-18T13:01:56.984Z,61.62
2022-12-18T13:04:48.250Z,61.37
2022-12-18T13:07:38.319Z,61.81
2022-12-18T13:10:34.263Z,62.85
2022-12-18T13:13:23.747Z,62.21
2022-12-18T13:16:11.697Z,61.14
2022-12-18T13:18:58.945Z,61.43
2022-12-18T13:21:42.472Z,61.69
2022-12-18T13:24:28.620Z,61.90
2022-12-18T13:27:46.317Z,62.04
2022-12-18T13:30:51.732Z,61.88
2022-12-18T13:34:24.349Z,61.85
2022-12-18T13:36:52.323Z,61.39
2022-12-18T13:39:36.714Z,61.63
2022-12-18T13:43:01.316Z,61.78
2022-12-18T13:45:47.887Z,61.25
2022-12-18T13:48:35.226Z,60.74
2022-12-18T13:51:21.936Z,61.47
2022-12-18T13:54:18.061Z,61.87
2022-12-18T13:57:02.269Z,61.24
2022-12-18T13:59:45.525Z,61.23
2022-12-18T14:02:30.865Z,61.44
2022-12-18T14:05:24.727Z,61.46
2022-12-18T14:08:12.355Z,62.21
2022-12-18T14:10:58.792Z,62.62
2022-12-18T14:13:44.349Z,61.90
2022-12-18T14:16:28.102Z,61.35
2022-12-18T14:19:16.058Z,62.15
2022-12-18T14:21:59.150Z,62.19
2022-12-18T14:24:42.240Z,62.29
2022-12-18T14:27:28.499Z,62.54
2022-12-18T14:30:30.747Z,62.74
2022-12-18T14:33:16.276Z,61.87
2022-12-18T14:36:01.680Z,62.73
2022-12-18T14:38:44.969Z,62.26
2022-12-18T14:41:28.937Z,61.60
2022-12-18T14:44:15.628Z,61.68
2022-12-18T14:46:59.115Z,61.98
2022-12-18T14:49:45.110Z,60.88
2022-12-18T14:52:34.258Z,60.54
2022-12-18T14:55:18.961Z,60.71
2022-12-18T14:58:02.243Z,62.02
2022-12-18T15:00:46.981Z,61.13
2022-12-18T15:03:31.497Z,61.49
2022-12-18T15:06:20.523Z,60.86
2022-12-18T15:09:07.791Z,60.86
2022-12-18T15:11:51.590Z,60.68
2022-12-18T15:14:37.816Z,60.93
2022-12-18T15:17:26.118Z,61.28
2022-12-18T15:20:15.768Z,61.15
2022-12-18T15:22:59.316Z,60.86
2022-12-18T15:25:42.687Z,60.86
2022-12-18T15:28:28.855Z,61.42
2022-12-18T15:31:25.884Z,60.49
2022-12-18T15:34:26.384Z,60.39
2022-12-18T15:37:09.922Z,59.81
2022-12-18T15:39:53.046Z,58.80
2022-12-18T15:42:53.971Z,59.29
2022-12-18T15:45:37.210Z,58.80
2022-12-18T15:48:23.903Z,59.51
2022-12-18T15:51:16.108Z,58.91
2022-12-18T15:54:04.960Z,59.43
2022-12-18T15:57:05.623Z,60.05
2022-12-18T15:59:48.912Z,58.93
2022-12-18T16:02:32.212Z,58.83
2022-12-18T16:05:18.073Z,59.40
2022-12-18T16:08:02.859Z,58.31
2022-12-18T16:10:45.997Z,58.44
2022-12-18T16:13:29.500Z,59.34
2022-12-18T16:16:12.647Z,59.29
2022-12-18T16:18:55.839Z,59.40
2022-12-18T16:21:39.045Z,59.19
2022-12-18T16:24:24.829Z,59.34
2022-12-18T16:27:08.680Z,59.17
2022-12-18T16:29:52.353Z,59.93
2022-12-18T16:32:35.738Z,60.35
2022-12-18T16:35:19.323Z,59.31
2022-12-18T16:38:02.770Z,60.19
2022-12-18T16:41:01.413Z,59.88
2022-12-18T16:43:45.539Z,60.72
2022-12-18T16:46:31.272Z,59.97
2022-12-18T16:49:15.161Z,60.32
2022-12-18T16:51:58.567Z,60.21
2022-12-18T16:54:41.729Z,61.32
2022-12-18T16:57:26.573Z,59.80
2022-12-18T17:00:11.046Z,60.68
2022-12-18T17:02:54.927Z,60.59
2022-12-18T17:05:38.142Z,60.56
2022-12-18T17:08:21.494Z,60.95
2022-12-18T17:11:09.325Z,59.99
2022-12-18T17:13:54.090Z,60.50
2022-12-18T17:16:37.377Z,60.94
2022-12-18T17:19:22.893Z,60.71
2022-12-18T17:22:06.411Z,60.28
2022-12-18T17:24:49.675Z,60.40
2022-12-18T17:27:32.984Z,60.52
2022-12-18T17:30:17.643Z,61.77
2022-12-18T17:33:00.717Z,60.30
2022-12-18T17:35:44.158Z,60.59
2022-12-18T17:38:27.758Z,60.54
2022-12-18T17:41:12.802Z,60.24
2022-12-18T17:43:56.773Z,60.44
2022-12-18T17:46:41.380Z,60.22
2022-12-18T17:49:24.523Z,60.10
2022-12-18T17:52:08.059Z,60.54
2022-12-18T17:54:51.193Z,59.74
2022-12-18T17:57:34.411Z,59.87
2022-12-18T18:00:21.157Z,60.60
2022-12-18T18:03:05.922Z,60.90
2022-12-18T18:05:49.425Z,60.19
2022-12-18T18:08:33.367Z,60.65
2022-12-18T18:11:35.841Z,61.27
2022-12-18T18:14:21.469Z,60.79
2022-12-18T18:17:05.168Z,60.36
2022-12-18T18:19:49.940Z,60.87
2022-12-18T18:22:33.816Z,60.97
2022-12-18T18:25:17.204Z,60.38
2022-12-18T18:28:01.333Z,60.79
2022-12-18T18:30:44.412Z,61.19
2022-12-18T18:33:27.638Z,60.37
2022-12-18T18:36:13.217Z,59.89
2022-12-18T18:38:56.444Z,60.10
2022-12-18T18:41:40.043Z,61.12
2022-12-18T18:44:24.876Z,59.81
2022-12-18T18:47:09.572Z,59.60
2022-12-18T18:49:54.366Z,59.72
2022-12-18T18:52:39.925Z,59.77
2022-12-18T18:55:25.807Z,60.37
2022-12-18T18:58:15.179Z,60.01
2022-12-18T19:01:00.038Z,60.29
2022-12-18T19:03:44.470Z,59.63
2022-12-18T19:06:29.430Z,59.19
2022-12-18T19:09:14.885Z,59.25
2022-12-18T19:12:15.528Z,59.70
2022-12-18T19:14:58.676Z,59.73
2022-12-18T19:17:42.098Z,61.27
2022-12-18T19:20:28.729Z,62.41
2022-12-18T19:23:12.267Z,61.78
2022-12-18T19:26:17.016Z,62.25
2022-12-18T19:29:04.706Z,61.79
2022-12-18T19:31:48.132Z,61.79
2022-12-18T19:34:31.346Z,62.37
2022-12-18T19:37:14.841Z,62.63
2022-12-18T19:39:59.352Z,62.04
2022-12-18T19:42:46.989Z,62.12
2022-12-18T19:45:31.134Z,63.70
2022-12-18T19:48:14.502Z,63.05
2022-12-18T19:50:57.958Z,62.59
2022-12-18T19:53:41.115Z,62.29
2022-12-18T19:56:26.458Z,63.11
2022-12-18T19:59:11.361Z,63.43
2022-12-18T20:01:54.759Z,64.01
2022-12-18T20:04:39.881Z,62.37
2022-12-18T20:07:23.250Z,62.21
2022-12-18T20:10:09.192Z,63.00
2022-12-18T20:12:52.490Z,62.65
2022-12-18T20:15:43.483Z,62.63
2022-12-18T20:18:28.401Z,62.10
2022-12-18T20:21:14.032Z,62.14
2022-12-18T20:23:59.186Z,62.55
2022-12-18T20:26:42.512Z,62.02
2022-12-18T20:29:25.971Z,62.92
2022-12-18T20:32:10.601Z,63.19
2022-12-18T20:34:55.462Z,63.21
2022-12-18T20:37:39.610Z,62.84
2022-12-18T20:40:26.052Z,63.22
2022-12-18T20:43:12.477Z,62.97
2022-12-18T20:46:06.322Z,63.50
2022-12-18T20:48:51.583Z,63.77
2022-12-18T20:51:35.086Z,62.94
2022-12-18T20:54:21.346Z,63.81
2022-12-18T20:57:04.662Z,63.42
2022-12-18T20:59:48.465Z,63.60
2022-12-18T21:02:32.199Z,63.60
2022-12-18T21:05:18.180Z,64.01
2022-12-18T21:08:01.366Z,64.90
2022-12-18T21:10:44.477Z,64.74
2022-12-18T21:13:27.819Z,63.84
2022-12-18T21:16:12.833Z,64.85
2022-12-18T21:19:00.031Z,63.46
2022-12-18T21:21:47.437Z,64.59
2022-12-18T21:24:32.866Z,64.59
2022-12-18T21:27:18.046Z,64.71
2022-12-18T21:30:01.403Z,65.24
2022-12-18T21:32:44.706Z,64.80
2022-12-18T21:35:27.816Z,64.14
2022-12-18T21:38:15.957Z,64.48
2022-12-18T21:40:59.499Z,63.48
2022-12-18T21:43:59.835Z,64.19
2022-12-18T21:46:44.744Z,63.89
2022-12-18T21:49:28.227Z,65.09
2022-12-18T21:52:11.611Z,65.02
2022-12-18T21:54:56.152Z,64.53
2022-12-18T21:57:39.505Z,64.80
2022-12-18T22:00:23.231Z,64.70
2022-12-18T22:03:18.354Z,65.43
2022-12-18T22:06:09.303Z,64.36
2022-12-18T22:08:53.091Z,65.14
2022-12-18T22:11:37.998Z,65.88
2022-12-18T22:14:21.472Z,65.49
2022-12-18T22:17:04.956Z,64.86
2022-12-18T22:19:48.576Z,65.01
2022-12-18T22:22:32.314Z,65.75
2022-12-18T22:25:15.706Z,65.12
2022-12-18T22:28:17.964Z,65.36
2022-12-18T22:31:01.114Z,64.74
2022-12-18T22:33:44.475Z,65.54
2022-12-18T22:36:30.264Z,65.96
2022-12-18T22:39:16.663Z,65.63
2022-12-18T22:42:00.173Z,65.01
2022-12-18T22:44:47.920Z,65.56
2022-12-18T22:47:31.023Z,64.36
2022-12-18T22:50:14.961Z,65.80
2022-12-18T22:52:58.302Z,65.32
2022-12-18T22:55:41.641Z,64.02
2022-12-18T22:58:24.700Z,64.30
2022-12-18T23:01:18.721Z,64.87
2022-12-18T23:04:01.922Z,65.41
2022-12-18T23:06:45.909Z,65.50
2022-12-18T23:09:29.350Z,64.92
2022-12-18T23:12:17.733Z,64.73
2022-12-18T23:15:01.479Z,64.43
2022-12-18T23:17:46.116Z,66.01
2022-12-18T23:20:29.642Z,64.35
2022-12-18T23:23:12.668Z,66.01
2022-12-18T23:26:02.532Z,65.78
2022-12-18T23:28:45.829Z,64.25
2022-12-18T23:31:30.777Z,65.08
2022-12-18T23:34:20.432Z,65.09
2022-12-18T23:37:04.268Z,65.63
2022-12-18T23:39:47.331Z,64.82
2022-12-18T23:42:30.523Z,65.87
2022-12-18T23:45:18.075Z,64.77
2022-12-18T23:48:01.837Z,65.71
2022-12-18T23:50:46.415Z,65.10
2022-12-18T23:53:29.499Z,66.19
2022-12-18T23:56:13.917Z,65.79
2022-12-18T23:58:57.359Z,65.73
